sensor_id;sensor_type;location;lat;lon;timestamp;pressure;altitude;pressure_sealevel;temperature;humidity
42771;BME280;28426;42.872;25.314;2022-12-18T00:00:53;97739.13;;;8.60;71.71
42771;BME280;28426;42.872;25.314;2022-12-18T00:03:25;97744.75;;;8.57;71.45
42771;BME280;28426;42.872;25.314;2022-12-18T00:05:55;97748.41;;;8.56;71.54
42771;BME280;28426;42.872;25.314;2022-12-18T00:08:26;97751.50;;;8.51;71.70
42771;BME280;28426;42.872;25.314;2022-12-18T00:11:03;97749.81;;;8.50;71.79
42771;BME280;28426;42.872;25.314;2022-12-18T00:13:34;97759.81;;;8.48;71.85
42771;BME280;28426;42.872;25.314;2022-12-18T00:16:10;97759.94;;;8.47;71.75
42771;BME280;28426;42.872;25.314;2022-12-18T00:18:42;97755.44;;;8.47;71.92
42771;BME280;28426;42.872;25.314;2022-12-18T00:21:13;97765.13;;;8.48;71.90
42771;BME280;28426;42.872;25.314;2022-12-18T00:23:45;97767.78;;;8.48;72.15
42771;BME280;28426;42.872;25.314;2022-12-18T00:26:19;97767.78;;;8.48;71.80
42771;BME280;28426;42.872;25.314;2022-12-18T00:28:53;97773.09;;;8.48;71.84
42771;BME280;28426;42.872;25.314;2022-12-18T00:31:27;97785.41;;;8.49;71.64
42771;BME280;28426;42.872;25.314;2022-12-18T00:33:58;97782.75;;;8.49;71.79
42771;BME280;28426;42.872;25.314;2022-12-18T00:36:31;97782.03;;;8.47;71.49
42771;BME280;28426;42.872;25.314;2022-12-18T00:39:04;97788.50;;;8.45;71.52
42771;BME280;28426;42.872;25.314;2022-12-18T00:41:35;97782.38;;;8.44;71.66
42771;BME280;28426;42.872;25.314;2022-12-18T00:44:18;97779.88;;;8.43;71.64
42771;BME280;28426;42.872;25.314;2022-12-18T00:46:53;97787.00;;;8.42;72.02
42771;BME280;28426;42.872;25.314;2022-12-18T00:49:24;97793.31;;;8.41;71.87
42771;BME280;28426;42.872;25.314;2022-12-18T00:51:54;97791.66;;;8.40;72.17
42771;BME280;28426;42.872;25.314;2022-12-18T00:54:26;97794.47;;;8.38;72.00
42771;BME280;28426;42.872;25.314;2022-12-18T00:56:56;97792.78;;;8.37;72.19
42771;BME280;28426;42.872;25.314;2022-12-18T00:59:27;97799.06;;;8.36;71.91
42771;BME280;28426;42.872;25.314;2022-12-18T01:02:00;97802.59;;;8.37;71.90
42771;BME280;28426;42.872;25.314;2022-12-18T01:04:31;97798.94;;;8.38;71.93
42771;BME280;28426;42.872;25.314;2022-12-18T01:07:02;97804.25;;;8.38;72.48
42771;BME280;28426;42.872;25.314;2022-12-18T01:09:34;97797.28;;;8.37;72.32
42771;BME280;28426;42.872;25.314;2022-12-18T01:12:06;97797.28;;;8.37;72.24
42771;BME280;28426;42.872;25.314;2022-12-18T01:14:36;97797.41;;;8.35;72.37
42771;BME280;28426;42.872;25.314;2022-12-18T01:17:13;97795.59;;;8.36;72.70
42771;BME280;28426;42.872;25.314;2022-12-18T01:19:45;97795.91;;;8.33;72.58
42771;BME280;28426;42.872;25.314;2022-12-18T01:22:15;97803.22;;;8.31;72.49
42771;BME280;28426;42.872;25.314;2022-12-18T01:24:46;97806.00;;;8.29;72.85
42771;BME280;28426;42.872;25.314;2022-12-18T01:27:16;97814.16;;;8.28;72.72
42771;BME280;28426;42.872;25.314;2022-12-18T01:29:47;97807.16;;;8.27;73.08
42771;BME280;28426;42.872;25.314;2022-12-18T01:32:21;97807.16;;;8.27;73.25
42771;BME280;28426;42.872;25.314;2022-12-18T01:34:52;97811.63;;;8.26;73.35
42771;BME280;28426;42.872;25.314;2022-12-18T01:37:23;97803.66;;;8.26;73.46
42771;BME280;28426;42.872;25.314;2022-12-18T01:39:53;97808.81;;;8.28;73.57
42771;BME280;28426;42.872;25.314;2022-12-18T01:42:24;97812.34;;;8.28;73.64
42771;BME280;28426;42.872;25.314;2022-12-18T01:44:59;97807.84;;;8.29;73.59
42771;BME280;28426;42.872;25.314;2022-12-18T01:47:38;97799.34;;;8.25;73.79
42771;BME280;28426;42.872;25.314;2022-12-18T01:50:15;97809.69;;;8.28;73.72
42771;BME280;28426;42.872;25.314;2022-12-18T01:52:48;97811.47;;;8.28;73.61
42771;BME280;28426;42.872;25.314;2022-12-18T01:55:22;97814.16;;;8.28;73.46
42771;BME280;28426;42.872;25.314;2022-12-18T01:57:57;97814.44;;;8.24;73.36
42771;BME280;28426;42.872;25.314;2022-12-18T02:00:29;97815.28;;;8.25;73.25
42771;BME280;28426;42.872;25.314;2022-12-18T02:03:02;97796.06;;;8.13;73.24
42771;BME280;28426;42.872;25.314;2022-12-18T02:05:40;97821.03;;;8.20;73.22
42771;BME280;28426;42.872;25.314;2022-12-18T02:08:20;97819.22;;;8.21;73.26
42771;BME280;28426;42.872;25.314;2022-12-18T02:10:53;97820.09;;;8.21;73.33
42771;BME280;28426;42.872;25.314;2022-12-18T02:13:32;97830.72;;;8.21;73.42
42771;BME280;28426;42.872;25.314;2022-12-18T02:16:30;97821.19;;;8.19;73.23
42771;BME280;28426;42.872;25.314;2022-12-18T02:19:19;97821.53;;;8.16;73.25
42771;BME280;28426;42.872;25.314;2022-12-18T02:22:03;97818.47;;;8.10;73.05
42771;BME280;28426;42.872;25.314;2022-12-18T02:24:41;97818.47;;;8.10;73.23
42771;BME280;28426;42.872;25.314;2022-12-18T02:27:18;97824.63;;;8.11;72.87
42771;BME280;28426;42.872;25.314;2022-12-18T02:29:51;97820.28;;;8.10;73.12
42771;BME280;28426;42.872;25.314;2022-12-18T02:32:31;97823.94;;;8.09;73.34
42771;BME280;28426;42.872;25.314;2022-12-18T02:35:05;97826.59;;;8.09;73.20
42771;BME280;28426;42.872;25.314;2022-12-18T02:37:39;97835.56;;;8.08;73.30
42771;BME280;28426;42.872;25.314;2022-12-18T02:40:14;97830.56;;;8.05;73.21
42771;BME280;28426;42.872;25.314;2022-12-18T02:42:48;97843.69;;;8.06;73.31
42771;BME280;28426;42.872;25.314;2022-12-18T02:45:20;97841.19;;;8.05;73.26
42771;BME280;28426;42.872;25.314;2022-12-18T02:47:52;97851.97;;;8.03;73.28
42771;BME280;28426;42.872;25.314;2022-12-18T02:50:29;97848.22;;;7.96;73.51
42771;BME280;28426;42.872;25.314;2022-12-18T02:53:10;97853.28;;;7.89;73.53
42771;BME280;28426;42.872;25.314;2022-12-18T02:55:53;97856.66;;;7.91;73.61
42771;BME280;28426;42.872;25.314;2022-12-18T02:58:34;97858.94;;;7.86;73.74
42771;BME280;28426;42.872;25.314;2022-12-18T03:01:21;97851.00;;;7.76;73.92
42771;BME280;28426;42.872;25.314;2022-12-18T03:03:56;97874.03;;;7.85;73.84
42771;BME280;28426;42.872;25.314;2022-12-18T03:06:30;97867.88;;;7.85;74.09
42771;BME280;28426;42.872;25.314;2022-12-18T03:09:07;97870.13;;;7.80;74.03
42771;BME280;28426;42.872;25.314;2022-12-18T03:11:41;97883.13;;;7.83;74.08
42771;BME280;28426;42.872;25.314;2022-12-18T03:14:30;97885.94;;;7.81;74.00
42771;BME280;28426;42.872;25.314;2022-12-18T03:17:04;97873.78;;;7.79;74.23
42771;BME280;28426;42.872;25.314;2022-12-18T03:19:36;97894.91;;;7.80;74.35
42771;BME280;28426;42.872;25.314;2022-12-18T03:22:10;97895.03;;;7.79;73.97
42771;BME280;28426;42.872;25.314;2022-12-18T03:24:45;97897.84;;;7.77;74.30
42771;BME280;28426;42.872;25.314;2022-12-18T03:27:19;97898.97;;;7.75;74.40
42771;BME280;28426;42.872;25.314;2022-12-18T03:30:01;97902.63;;;7.74;74.52
42771;BME280;28426;42.872;25.314;2022-12-18T03:32:41;97906.25;;;7.72;74.28
42771;BME280;28426;42.872;25.314;2022-12-18T03:35:17;97917.16;;;7.69;74.47
42771;BME280;28426;42.872;25.314;2022-12-18T03:37:49;97924.28;;;7.69;74.57
42771;BME280;28426;42.872;25.314;2022-12-18T03:40:26;97927.25;;;7.66;74.53
42771;BME280;28426;42.872;25.314;2022-12-18T03:43:01;97944.34;;;7.63;74.48
42771;BME280;28426;42.872;25.314;2022-12-18T03:45:38;97933.31;;;7.58;74.62
42771;BME280;28426;42.872;25.314;2022-12-18T03:48:17;97940.44;;;7.57;74.21
42771;BME280;28426;42.872;25.314;2022-12-18T03:50:53;97945.22;;;7.54;74.25
42771;BME280;28426;42.872;25.314;2022-12-18T03:53:34;97957.78;;;7.52;74.36
42771;BME280;28426;42.872;25.314;2022-12-18T03:56:09;97955.56;;;7.47;74.35
42771;BME280;28426;42.872;25.314;2022-12-18T03:58:42;97955.72;;;7.45;74.27
42771;BME280;28426;42.872;25.314;2022-12-18T04:01:24;97963.09;;;7.42;74.40
42771;BME280;28426;42.872;25.314;2022-12-18T04:03:59;97965.94;;;7.40;74.31
42771;BME280;28426;42.872;25.314;2022-12-18T04:06:34;97969.00;;;7.36;74.33
42771;BME280;28426;42.872;25.314;2022-12-18T04:09:05;97970.13;;;7.33;74.54
42771;BME280;28426;42.872;25.314;2022-12-18T04:11:40;97979.34;;;7.29;74.53
42771;BME280;28426;42.872;25.314;2022-12-18T04:14:13;97975.31;;;7.25;74.69
42771;BME280;28426;42.872;25.314;2022-12-18T04:16:51;97975.56;;;7.22;74.56
42771;BME280;28426;42.872;25.314;2022-12-18T04:19:29;97987.50;;;7.17;74.73
42771;BME280;28426;42.872;25.314;2022-12-18T04:22:01;97995.00;;;7.12;74.75
42771;BME280;28426;42.872;25.314;2022-12-18T04:24:39;97998.38;;;7.04;74.86
42771;BME280;28426;42.872;25.314;2022-12-18T04:27:17;98000.06;;;6.96;75.30
42771;BME280;28426;42.872;25.314;2022-12-18T04:29:50;98004.25;;;6.88;75.21
42771;BME280;28426;42.872;25.314;2022-12-18T04:32:23;98012.63;;;6.74;75.61
42771;BME280;28426;42.872;25.314;2022-12-18T04:34:53;98022.94;;;6.67;75.93
42771;BME280;28426;42.872;25.314;2022-12-18T04:37:24;98019.00;;;6.61;76.08
42771;BME280;28426;42.872;25.314;2022-12-18T04:39:55;98024.75;;;6.57;76.14
42771;BME280;28426;42.872;25.314;2022-12-18T04:42:33;98022.50;;;6.52;76.84
42771;BME280;28426;42.872;25.314;2022-12-18T04:45:05;98029.03;;;6.48;76.96
42771;BME280;28426;42.872;25.314;2022-12-18T04:47:38;98033.78;;;6.44;77.79
42771;BME280;28426;42.872;25.314;2022-12-18T04:50:09;98044.91;;;6.38;77.46
42771;BME280;28426;42.872;25.314;2022-12-18T04:52:40;98034.00;;;6.31;77.57
42771;BME280;28426;42.872;25.314;2022-12-18T04:55:13;98046.56;;;6.29;77.80
42771;BME280;28426;42.872;25.314;2022-12-18T04:57:43;98034.81;;;6.22;77.41
42771;BME280;28426;42.872;25.314;2022-12-18T05:00:14;98042.19;;;6.18;77.70
42771;BME280;28426;42.872;25.314;2022-12-18T05:02:48;98039.00;;;6.14;78.35
42771;BME280;28426;42.872;25.314;2022-12-18T05:05:19;98051.53;;;6.12;78.34
42771;BME280;28426;42.872;25.314;2022-12-18T05:07:49;98057.78;;;6.11;78.56
42771;BME280;28426;42.872;25.314;2022-12-18T05:10:20;98056.13;;;6.10;78.60
42771;BME280;28426;42.872;25.314;2022-12-18T05:12:51;98059.75;;;6.09;78.72
42771;BME280;28426;42.872;25.314;2022-12-18T05:15:31;98062.41;;;6.09;78.97
42771;BME280;28426;42.872;25.314;2022-12-18T05:18:05;98069.38;;;6.10;78.99
42771;BME280;28426;42.872;25.314;2022-12-18T05:20:35;98073.81;;;6.10;79.00
42771;BME280;28426;42.872;25.314;2022-12-18T05:23:06;98069.25;;;6.12;79.15
42771;BME280;28426;42.872;25.314;2022-12-18T05:25:37;98078.03;;;6.12;78.96
42771;BME280;28426;42.872;25.314;2022-12-18T05:28:07;98069.38;;;6.10;79.29
42771;BME280;28426;42.872;25.314;2022-12-18T05:30:38;98077.75;;;6.15;79.15
42771;BME280;28426;42.872;25.314;2022-12-18T05:33:11;98091.72;;;6.18;79.19
42771;BME280;28426;42.872;25.314;2022-12-18T05:35:42;98087.13;;;6.20;78.84
42771;BME280;28426;42.872;25.314;2022-12-18T05:38:12;98080.00;;;6.20;78.93
42771;BME280;28426;42.872;25.314;2022-12-18T05:40:43;98093.00;;;6.23;78.92
42771;BME280;28426;42.872;25.314;2022-12-18T05:43:14;98087.56;;;6.25;78.35
42771;BME280;28426;42.872;25.314;2022-12-18T05:45:48;98090.91;;;6.27;78.25
42771;BME280;28426;42.872;25.314;2022-12-18T05:48:21;98101.25;;;6.30;78.28
42771;BME280;28426;42.872;25.314;2022-12-18T05:50:52;98076.66;;;6.18;78.21
42771;BME280;28426;42.872;25.314;2022-12-18T05:53:22;98107.97;;;6.34;78.35
42771;BME280;28426;42.872;25.314;2022-12-18T05:55:53;98099.16;;;6.34;78.23
42771;BME280;28426;42.872;25.314;2022-12-18T05:58:24;98109.63;;;6.35;77.91
42771;BME280;28426;42.872;25.314;2022-12-18T06:00:54;98115.78;;;6.36;77.97
42771;BME280;28426;42.872;25.314;2022-12-18T06:03:28;98119.28;;;6.36;77.80
42771;BME280;28426;42.872;25.314;2022-12-18T06:06:00;98120.97;;;6.37;77.35
42771;BME280;28426;42.872;25.314;2022-12-18T06:08:31;98118.56;;;6.34;77.40
42771;BME280;28426;42.872;25.314;2022-12-18T06:11:01;98129.91;;;6.36;77.29
42771;BME280;28426;42.872;25.314;2022-12-18T06:13:32;98132.56;;;6.36;77.25
42771;BME280;28426;42.872;25.314;2022-12-18T06:16:03;98137.97;;;6.35;76.98
42771;BME280;28426;42.872;25.314;2022-12-18T06:18:37;98141.47;;;6.35;76.81
42771;BME280;28426;42.872;25.314;2022-12-18T06:21:07;98149.41;;;6.35;76.65
42771;BME280;28426;42.872;25.314;2022-12-18T06:23:38;98156.53;;;6.35;76.50
42771;BME280;28426;42.872;25.314;2022-12-18T06:26:11;98156.66;;;6.33;76.56
42771;BME280;28426;42.872;25.314;2022-12-18T06:28:42;98167.97;;;6.35;76.48
42771;BME280;28426;42.872;25.314;2022-12-18T06:31:13;98170.91;;;6.32;76.43
42771;BME280;28426;42.872;25.314;2022-12-18T06:33:47;98175.22;;;6.33;76.32
42771;BME280;28426;42.872;25.314;2022-12-18T06:36:18;98183.19;;;6.33;76.11
42771;BME280;28426;42.872;25.314;2022-12-18T06:38:48;98176.00;;;6.24;75.90
42771;BME280;28426;42.872;25.314;2022-12-18T06:41:20;98188.59;;;6.32;75.62
42771;BME280;28426;42.872;25.314;2022-12-18T06:43:51;98189.47;;;6.32;75.77
42771;BME280;28426;42.872;25.314;2022-12-18T06:46:26;98200.75;;;6.34;75.83
42771;BME280;28426;42.872;25.314;2022-12-18T06:48:59;98200.75;;;6.34;75.42
42771;BME280;28426;42.872;25.314;2022-12-18T06:51:30;98201.72;;;6.33;75.59
42771;BME280;28426;42.872;25.314;2022-12-18T06:54:00;98206.78;;;6.36;75.48
42771;BME280;28426;42.872;25.314;2022-12-18T06:56:31;98206.78;;;6.36;75.25
42771;BME280;28426;42.872;25.314;2022-12-18T06:59:02;98207.59;;;6.37;75.53
42771;BME280;28426;42.872;25.314;2022-12-18T07:01:33;98211.09;;;6.37;75.40
42771;BME280;28426;42.872;25.314;2022-12-18T07:04:07;98214.00;;;6.34;75.34
42771;BME280;28426;42.872;25.314;2022-12-18T07:06:38;98217.38;;;6.36;75.31
42771;BME280;28426;42.872;25.314;2022-12-18T07:09:08;98223.38;;;6.38;75.04
42771;BME280;28426;42.872;25.314;2022-12-18T07:11:39;98227.72;;;6.39;74.95
42771;BME280;28426;42.872;25.314;2022-12-18T07:14:09;98233.00;;;6.39;75.12
42771;BME280;28426;42.872;25.314;2022-12-18T07:16:40;98230.38;;;6.39;74.68
42771;BME280;28426;42.872;25.314;2022-12-18T07:19:13;98237.34;;;6.40;74.78
42771;BME280;28426;42.872;25.314;2022-12-18T07:21:44;98229.38;;;6.40;74.77
42771;BME280;28426;42.872;25.314;2022-12-18T07:24:15;98230.25;;;6.41;74.92
42771;BME280;28426;42.872;25.314;2022-12-18T07:26:47;98231.91;;;6.42;74.71
42771;BME280;28426;42.872;25.314;2022-12-18T07:29:18;98235.53;;;6.41;74.65
42771;BME280;28426;42.872;25.314;2022-12-18T07:31:48;98239.75;;;6.44;74.98
42771;BME280;28426;42.872;25.314;2022-12-18T07:34:22;98242.25;;;6.45;74.77
42771;BME280;28426;42.872;25.314;2022-12-18T07:36:52;98235.00;;;6.47;74.79
42771;BME280;28426;42.872;25.314;2022-12-18T07:39:23;98247.19;;;6.50;74.99
42771;BME280;28426;42.872;25.314;2022-12-18T07:41:53;98245.25;;;6.52;74.72
42771;BME280;28426;42.872;25.314;2022-12-18T07:44:39;98245.25;;;6.52;74.38
42771;BME280;28426;42.872;25.314;2022-12-18T07:47:10;98248.47;;;6.56;73.87
42771;BME280;28426;42.872;25.314;2022-12-18T07:49:43;98258.13;;;6.57;73.67
42771;BME280;28426;42.872;25.314;2022-12-18T07:52:14;98255.47;;;6.57;73.57
42771;BME280;28426;42.872;25.314;2022-12-18T07:54:52;98254.47;;;6.58;73.34
42771;BME280;28426;42.872;25.314;2022-12-18T07:57:23;98260.63;;;6.58;73.79
42771;BME280;28426;42.872;25.314;2022-12-18T08:00:14;98258.56;;;6.62;73.56
42771;BME280;28426;42.872;25.314;2022-12-18T08:02:45;98255.78;;;6.63;73.41
42771;BME280;28426;42.872;25.314;2022-12-18T08:05:19;98252.16;;;6.64;72.79
42771;BME280;28426;42.872;25.314;2022-12-18T08:07:50;98248.53;;;6.65;72.66
42771;BME280;28426;42.872;25.314;2022-12-18T08:10:20;98246.72;;;6.66;72.51
42771;BME280;28426;42.872;25.314;2022-12-18T08:12:52;98257.31;;;6.66;72.25
42771;BME280;28426;42.872;25.314;2022-12-18T08:15:30;98258.16;;;6.66;72.09
42771;BME280;28426;42.872;25.314;2022-12-18T08:18:01;98259.81;;;6.67;72.12
42771;BME280;28426;42.872;25.314;2022-12-18T08:20:42;98272.00;;;6.70;72.04
42771;BME280;28426;42.872;25.314;2022-12-18T08:23:13;98269.19;;;6.72;71.65
42771;BME280;28426;42.872;25.314;2022-12-18T08:25:44;98267.28;;;6.74;70.75
42771;BME280;28426;42.872;25.314;2022-12-18T08:28:14;98267.16;;;6.75;71.28
42771;BME280;28426;42.872;25.314;2022-12-18T08:30:45;98265.06;;;6.79;71.45
42771;BME280;28426;42.872;25.314;2022-12-18T08:33:16;98264.69;;;6.84;71.33
42771;BME280;28426;42.872;25.314;2022-12-18T08:35:49;98260.19;;;6.84;71.29
42771;BME280;28426;42.872;25.314;2022-12-18T08:38:19;98267.34;;;6.93;71.27
42771;BME280;28426;42.872;25.314;2022-12-18T08:40:57;98267.66;;;7.00;71.03
42771;BME280;28426;42.872;25.314;2022-12-18T08:43:28;98274.25;;;7.06;70.90
42771;BME280;28426;42.872;25.314;2022-12-18T08:46:12;98267.47;;;7.13;70.88
42771;BME280;28426;42.872;25.314;2022-12-18T08:48:43;98266.34;;;7.16;70.45
42771;BME280;28426;42.872;25.314;2022-12-18T08:51:16;98262.16;;;7.23;70.33
42771;BME280;28426;42.872;25.314;2022-12-18T08:53:47;98269.72;;;7.28;69.80
42771;BME280;28426;42.872;25.314;2022-12-18T08:56:18;98270.28;;;7.31;69.23
42771;BME280;28426;42.872;25.314;2022-12-18T08:58:51;98273.50;;;7.35;69.00
42771;BME280;28426;42.872;25.314;2022-12-18T09:01:22;98270.59;;;7.38;68.82
42771;BME280;28426;42.872;25.314;2022-12-18T09:03:53;98274.22;;;7.37;68.06
42771;BME280;28426;42.872;25.314;2022-12-18T09:06:26;98267.94;;;7.38;67.44
42771;BME280;28426;42.872;25.314;2022-12-18T09:08:57;98269.59;;;7.39;67.27
42771;BME280;28426;42.872;25.314;2022-12-18T09:11:29;98270.47;;;7.40;67.18
42771;BME280;28426;42.872;25.314;2022-12-18T09:14:01;98270.34;;;7.41;66.95
42771;BME280;28426;42.872;25.314;2022-12-18T09:16:32;98274.66;;;7.42;66.86
42771;BME280;28426;42.872;25.314;2022-12-18T09:19:04;98270.34;;;7.41;66.69
42771;BME280;28426;42.872;25.314;2022-12-18T09:21:38;98258.69;;;7.32;66.71
42771;BME280;28426;42.872;25.314;2022-12-18T09:24:14;98272.84;;;7.43;66.57
42771;BME280;28426;42.872;25.314;2022-12-18T09:26:45;98271.03;;;7.43;65.67
42771;BME280;28426;42.872;25.314;2022-12-18T09:29:24;98272.97;;;7.41;65.79
42771;BME280;28426;42.872;25.314;2022-12-18T09:31:54;98276.47;;;7.42;65.38
42771;BME280;28426;42.872;25.314;2022-12-18T09:34:25;98271.31;;;7.40;65.27
42771;BME280;28426;42.872;25.314;2022-12-18T09:36:58;98273.97;;;7.40;64.80
42771;BME280;28426;42.872;25.314;2022-12-18T09:39:29;98282.31;;;7.36;64.03
42771;BME280;28426;42.872;25.314;2022-12-18T09:42:00;98272.81;;;7.33;64.42
42771;BME280;28426;42.872;25.314;2022-12-18T09:44:33;98278.97;;;7.33;64.53
42771;BME280;28426;42.872;25.314;2022-12-18T09:47:15;98274.50;;;7.34;64.74
42771;BME280;28426;42.872;25.314;2022-12-18T09:49:50;98281.22;;;7.38;64.98
42771;BME280;28426;42.872;25.314;2022-12-18T09:52:26;98275.91;;;7.38;63.11
42771;BME280;28426;42.872;25.314;2022-12-18T09:55:00;98274.09;;;7.39;63.87
42771;BME280;28426;42.872;25.314;2022-12-18T09:57:33;98274.78;;;7.41;64.23
42771;BME280;28426;42.872;25.314;2022-12-18T10:00:15;98273.97;;;7.40;63.90
42771;BME280;28426;42.872;25.314;2022-12-18T10:02:47;98277.19;;;7.44;63.76
42771;BME280;28426;42.872;25.314;2022-12-18T10:05:26;98284.28;;;7.43;63.88
42771;BME280;28426;42.872;25.314;2022-12-18T10:08:06;98284.16;;;7.45;62.93
42771;BME280;28426;42.872;25.314;2022-12-18T10:10:43;98273.53;;;7.45;63.02
42771;BME280;28426;42.872;25.314;2022-12-18T10:13:23;98267.81;;;7.40;61.55
42771;BME280;28426;42.872;25.314;2022-12-18T10:16:04;98271.44;;;7.39;61.71
42771;BME280;28426;42.872;25.314;2022-12-18T10:18:56;98271.72;;;7.36;60.59
42771;BME280;28426;42.872;25.314;2022-12-18T10:21:32;98266.81;;;7.31;60.54
42771;BME280;28426;42.872;25.314;2022-12-18T10:24:08;98260.91;;;7.27;59.29
42771;BME280;28426;42.872;25.314;2022-12-18T10:26:41;98261.03;;;7.26;59.77
42771;BME280;28426;42.872;25.314;2022-12-18T10:29:13;98272.66;;;7.25;60.02
42771;BME280;28426;42.872;25.314;2022-12-18T10:31:45;98273.38;;;7.27;59.65
42771;BME280;28426;42.872;25.314;2022-12-18T10:34:15;98276.03;;;7.27;59.41
42771;BME280;28426;42.872;25.314;2022-12-18T10:36:47;98281.16;;;7.28;57.91
42771;BME280;28426;42.872;25.314;2022-12-18T10:39:22;98275.88;;;7.28;57.97
42771;BME280;28426;42.872;25.314;2022-12-18T10:42:10;98277.69;;;7.28;55.86
42771;BME280;28426;42.872;25.314;2022-12-18T10:44:40;98276.72;;;7.29;57.12
42771;BME280;28426;42.872;25.314;2022-12-18T10:47:14;98278.69;;;7.27;56.54
42771;BME280;28426;42.872;25.314;2022-12-18T10:49:49;98278.69;;;7.27;57.03
42771;BME280;28426;42.872;25.314;2022-12-18T10:52:21;98276.84;;;7.27;56.40
42771;BME280;28426;42.872;25.314;2022-12-18T10:54:57;98273.38;;;7.27;56.27
42771;BME280;28426;42.872;25.314;2022-12-18T10:57:35;98285.66;;;7.28;56.11
42771;BME280;28426;42.872;25.314;2022-12-18T11:00:24;98285.41;;;7.31;56.30
42771;BME280;28426;42.872;25.314;2022-12-18T11:02:55;98292.09;;;7.35;56.26
42771;BME280;28426;42.872;25.314;2022-12-18T11:05:29;98273.06;;;7.30;55.52
42771;BME280;28426;42.872;25.314;2022-12-18T11:08:01;98287.25;;;7.40;54.85
42771;BME280;28426;42.872;25.314;2022-12-18T11:10:36;98294.34;;;7.40;54.94
42771;BME280;28426;42.872;25.314;2022-12-18T11:13:15;98289.91;;;7.40;55.05
42771;BME280;28426;42.872;25.314;2022-12-18T11:15:47;98289.59;;;7.43;55.01
42771;BME280;28426;42.872;25.314;2022-12-18T11:18:22;98290.19;;;7.47;54.72
42771;BME280;28426;42.872;25.314;2022-12-18T11:20:56;98291.88;;;7.48;53.73
42771;BME280;28426;42.872;25.314;2022-12-18T11:23:27;98289.09;;;7.50;54.37
42771;BME280;28426;42.872;25.314;2022-12-18T11:26:03;98286.56;;;7.48;54.44
42771;BME280;28426;42.872;25.314;2022-12-18T11:28:36;98289.66;;;7.53;52.99
42771;BME280;28426;42.872;25.314;2022-12-18T11:31:27;98288.78;;;7.53;52.80
42771;BME280;28426;42.872;25.314;2022-12-18T11:34:02;98292.84;;;7.57;53.92
42771;BME280;28426;42.872;25.314;2022-12-18T11:36:54;98291.19;;;7.56;50.87
42771;BME280;28426;42.872;25.314;2022-12-18T11:39:30;98292.44;;;7.52;50.92
42771;BME280;28426;42.872;25.314;2022-12-18T11:42:11;98298.00;;;7.49;51.62
42771;BME280;28426;42.872;25.314;2022-12-18T11:44:47;98304.16;;;7.49;50.50
42771;BME280;28426;42.872;25.314;2022-12-18T11:47:24;98301.78;;;7.46;49.52
42771;BME280;28426;42.872;25.314;2022-12-18T11:50:00;98298.81;;;7.39;49.54
42771;BME280;28426;42.872;25.314;2022-12-18T11:52:36;98299.13;;;7.36;49.98
42771;BME280;28426;42.872;25.314;2022-12-18T11:55:12;98298.25;;;7.36;50.66
42771;BME280;28426;42.872;25.314;2022-12-18T11:57:54;98303.56;;;7.36;50.04
42771;BME280;28426;42.872;25.314;2022-12-18T12:00:27;98302.03;;;7.33;49.78
42771;BME280;28426;42.872;25.314;2022-12-18T12:03:18;98291.78;;;7.28;49.65
42771;BME280;28426;42.872;25.314;2022-12-18T12:06:00;98298.22;;;7.26;50.47
42771;BME280;28426;42.872;25.314;2022-12-18T12:08:40;98305.50;;;7.24;49.24
42771;BME280;28426;42.872;25.314;2022-12-18T12:11:23;98305.63;;;7.22;50.26
42771;BME280;28426;42.872;25.314;2022-12-18T12:14:07;98300.31;;;7.22;50.74
42771;BME280;28426;42.872;25.314;2022-12-18T12:16:47;98316.09;;;7.24;50.17
42771;BME280;28426;42.872;25.314;2022-12-18T12:19:30;98298.38;;;7.24;50.58
42771;BME280;28426;42.872;25.314;2022-12-18T12:22:08;98302.84;;;7.24;50.04
42771;BME280;28426;42.872;25.314;2022-12-18T12:24:52;98296.97;;;7.20;49.46
42771;BME280;28426;42.872;25.314;2022-12-18T12:27:30;98306.72;;;7.19;50.63
42771;BME280;28426;42.872;25.314;2022-12-18T12:30:08;98303.22;;;7.19;49.50
42771;BME280;28426;42.872;25.314;2022-12-18T12:33:07;98300.72;;;7.17;50.32
42771;BME280;28426;42.872;25.314;2022-12-18T12:35:46;98292.03;;;7.15;50.96
42771;BME280;28426;42.872;25.314;2022-12-18T12:38:25;98290.22;;;7.16;51.29
42771;BME280;28426;42.872;25.314;2022-12-18T12:40:59;98307.56;;;7.20;50.99
42771;BME280;28426;42.872;25.314;2022-12-18T12:43:38;98310.22;;;7.20;50.96
42771;BME280;28426;42.872;25.314;2022-12-18T12:46:19;98311.91;;;7.21;51.22
42771;BME280;28426;42.872;25.314;2022-12-18T12:48:53;98309.25;;;7.21;51.57
42771;BME280;28426;42.872;25.314;2022-12-18T12:51:27;98309.38;;;7.19;51.42
42771;BME280;28426;42.872;25.314;2022-12-18T12:53:59;98314.69;;;7.19;51.29
42771;BME280;28426;42.872;25.314;2022-12-18T12:56:38;98321.81;;;7.19;50.33
42771;BME280;28426;42.872;25.314;2022-12-18T12:59:13;98322.09;;;7.16;51.06
42771;BME280;28426;42.872;25.314;2022-12-18T13:01:54;98326.53;;;7.15;51.16
42771;BME280;28426;42.872;25.314;2022-12-18T13:04:33;98333.09;;;7.11;50.48
42771;BME280;28426;42.872;25.314;2022-12-18T13:07:14;98337.56;;;7.11;50.71
42771;BME280;28426;42.872;25.314;2022-12-18T13:10:13;98342.03;;;7.10;50.44
42771;BME280;28426;42.872;25.314;2022-12-18T13:12:55;98337.09;;;7.05;51.21
42771;BME280;28426;42.872;25.314;2022-12-18T13:15:28;98336.00;;;7.08;50.40
42771;BME280;28426;42.872;25.314;2022-12-18T13:18:14;98341.47;;;7.06;50.16
42771;BME280;28426;42.872;25.314;2022-12-18T13:20:46;98354.88;;;7.05;50.09
42771;BME280;28426;42.872;25.314;2022-12-18T13:26:32;98350.22;;;6.97;49.90
42771;BME280;28426;42.872;25.314;2022-12-18T13:29:03;98351.44;;;6.93;50.31
42771;BME280;28426;42.872;25.314;2022-12-18T13:31:58;98348.91;;;6.91;49.79
42771;BME280;28426;42.872;25.314;2022-12-18T13:34:31;98354.22;;;6.91;51.05
42771;BME280;28426;42.872;25.314;2022-12-18T13:37:39;98350.59;;;6.92;50.81
42771;BME280;28426;42.872;25.314;2022-12-18T13:43:27;98369.03;;;6.94;51.07
42771;BME280;28426;42.872;25.314;2022-12-18T13:46:23;98361.22;;;6.92;50.78